Time;durP1;ratioP1;P1;durP2;ratioP2;P2;SDS_P1;SDS_P2;PMS_P1;PMS_P2;Temp;Humidity;BMP_temperature;BMP_pressure;BME280_temperature;BME280_humidity;BME280_pressure;Samples;Min_cycle;Max_cycle;Signal;HPM_P1;HPM_P2
2023/07/18 00:00:41;;;;;;;3.93;2.70;;;;;;;14.52;88.44;101350.78;5034946;28;20230;-85
2023/07/18 00:03:09;;;;;;;3.03;2.57;;;;;;;14.50;88.88;101350.06;5034424;28;20206;-85
2023/07/18 00:05:37;;;;;;;4.97;2.83;;;;;;;14.49;89.15;101356.38;5025854;28;20596;-85
2023/07/18 00:08:04;;;;;;;6.03;2.70;;;;;;;14.49;88.82;101352.84;5023427;28;20652;-84
2023/07/18 00:10:31;;;;;;;5.57;2.57;;;;;;;14.46;88.93;101351.22;5014986;28;20238;-85
2023/07/18 00:12:58;;;;;;;5.50;2.90;;;;;;;14.47;88.78;101352.09;5014297;28;20207;-84
2023/07/18 00:15:25;;;;;;;4.77;2.57;;;;;;;14.45;88.61;101352.19;5050393;28;20198;-85
2023/07/18 00:17:52;;;;;;;5.63;3.10;;;;;;;14.46;88.94;101353.06;5033294;28;20202;-84
2023/07/18 00:20:19;;;;;;;4.47;2.70;;;;;;;14.43;88.66;101351.44;5033536;28;20834;-84
2023/07/18 00:22:48;;;;;;;3.23;2.30;;;;;;;14.41;88.95;101345.31;5033495;28;20210;-84
2023/07/18 00:25:16;;;;;;;4.90;2.73;;;;;;;14.40;89.08;101342.72;5033758;28;20206;-85
2023/07/18 00:27:43;;;;;;;6.10;3.27;;;;;;;14.38;88.60;101345.50;5034566;28;20577;-86
2023/07/18 00:30:12;;;;;;;4.83;2.53;;;;;;;14.38;88.81;101349.97;5033537;28;20206;-85
2023/07/18 00:32:39;;;;;;;5.73;3.50;;;;;;;14.36;88.75;101347.41;5033918;28;20235;-84
2023/07/18 00:35:07;;;;;;;6.87;3.10;;;;;;;14.34;89.25;101349.31;5034379;28;20591;-84
2023/07/18 00:37:34;;;;;;;4.87;2.80;;;;;;;14.32;88.72;101340.56;5033754;28;20218;-84
2023/07/18 00:40:02;;;;;;;5.20;3.03;;;;;;;14.30;88.91;101342.50;5031655;28;20230;-85
2023/07/18 00:42:29;;;;;;;5.70;3.57;;;;;;;14.30;89.12;101341.63;5017374;28;20306;-84
2023/07/18 00:44:57;;;;;;;6.17;2.83;;;;;;;14.29;89.13;101338.09;5033832;28;20215;-83
2023/07/18 00:47:23;;;;;;;5.93;2.67;;;;;;;14.28;89.62;101341.72;5024207;28;20219;-84
2023/07/18 00:49:51;;;;;;;4.37;2.63;;;;;;;14.28;89.58;101343.53;5014520;28;20206;-85
2023/07/18 00:52:17;;;;;;;4.37;3.40;;;;;;;14.27;89.69;101348.03;5024198;28;20224;-85
2023/07/18 00:54:45;;;;;;;6.60;3.10;;;;;;;14.27;89.97;101336.47;5034241;28;20213;-85
2023/07/18 00:57:13;;;;;;;7.37;3.20;;;;;;;14.25;89.82;101333.88;5033940;28;20213;-84
2023/07/18 00:59:41;;;;;;;4.97;2.87;;;;;;;14.23;89.56;101331.31;5034038;28;20245;-86
2023/07/18 01:02:07;;;;;;;4.53;3.13;;;;;;;14.22;89.64;101334.94;5033722;28;20322;-85
2023/07/18 01:04:34;;;;;;;5.87;2.93;;;;;;;14.22;89.93;101323.38;5029584;28;20521;-84
2023/07/18 01:07:01;;;;;;;5.70;3.10;;;;;;;14.23;90.28;101325.09;5030428;28;20219;-85
2023/07/18 01:09:27;;;;;;;6.50;3.37;;;;;;;14.23;90.28;101320.59;5024857;28;20214;-84
2023/07/18 01:11:55;;;;;;;6.77;2.97;;;;;;;14.23;90.11;101328.63;5033970;28;20230;-84
2023/07/18 01:14:25;;;;;;;5.40;3.10;;;;;;;14.23;90.26;101325.97;5033623;28;20202;-85
2023/07/18 01:16:52;;;;;;;5.40;2.83;;;;;;;14.22;90.15;101318.03;5033526;28;20681;-85
2023/07/18 01:19:19;;;;;;;7.27;3.63;;;;;;;14.22;90.40;101323.38;5031098;28;20236;-87
2023/07/18 01:21:47;;;;;;;4.97;3.03;;;;;;;14.21;90.69;101318.97;5029467;28;20229;-85
2023/07/18 01:24:13;;;;;;;12.23;3.40;;;;;;;14.20;90.71;101309.22;5030544;28;20569;-85
2023/07/18 01:26:39;;;;;;;4.60;2.93;;;;;;;14.19;90.52;101312.88;5033423;28;20615;-85
2023/07/18 01:29:06;;;;;;;6.73;3.30;;;;;;;14.21;90.22;101316.31;5023805;28;20210;-85
2023/07/18 01:31:32;;;;;;;4.90;3.20;;;;;;;14.21;90.63;101311.81;5030517;28;20233;-85
2023/07/18 01:34:04;;;;;;;4.67;3.20;;;;;;;14.20;90.33;101310.09;5032227;28;20205;-85
2023/07/18 01:36:31;;;;;;;4.03;2.97;;;;;;;14.21;90.40;101308.25;5032337;28;20226;-84
2023/07/18 01:38:59;;;;;;;7.43;4.37;;;;;;;14.19;90.67;101305.69;5032089;28;20218;-84
2023/07/18 01:41:25;;;;;;;6.57;2.90;;;;;;;14.20;90.46;101309.22;5020564;28;20234;-84
2023/07/18 01:43:52;;;;;;;7.07;3.80;;;;;;;14.20;90.55;101306.53;5013038;28;20218;-84
2023/07/18 01:46:18;;;;;;;7.53;3.67;;;;;;;14.20;90.60;101293.16;5023210;28;20209;-86
2023/07/18 01:48:44;;;;;;;7.20;3.60;;;;;;;14.19;91.16;101292.28;5033011;28;20221;-87
2023/07/18 01:51:11;;;;;;;5.73;3.60;;;;;;;14.20;91.28;101294.00;5032483;28;20223;-86
2023/07/18 01:53:37;;;;;;;5.93;3.53;;;;;;;14.20;91.27;101295.84;5033220;28;20202;-85
2023/07/18 01:56:06;;;;;;;8.27;4.17;;;;;;;14.20;91.01;101294.00;5032363;28;20213;-85
2023/07/18 01:58:32;;;;;;;8.17;4.07;;;;;;;14.22;91.10;101301.94;5032335;28;20368;-85
2023/07/18 02:01:03;;;;;;;7.67;3.50;;;;;;;14.22;91.57;101301.94;5032480;28;20230;-85
2023/07/18 02:03:29;;;;;;;5.47;3.30;;;;;;;14.21;91.58;101305.59;5032427;28;20206;-85
2023/07/18 02:05:55;;;;;;;10.10;4.43;;;;;;;14.20;91.41;101303.88;5034089;28;20789;-85
2023/07/18 02:08:22;;;;;;;6.17;4.03;;;;;;;14.18;91.23;101303.97;5049622;28;20690;-85
2023/07/18 02:10:49;;;;;;;6.20;3.40;;;;;;;14.18;91.20;101309.31;5032608;28;20229;-85
2023/07/18 02:13:16;;;;;;;4.87;3.10;;;;;;;14.18;91.52;101300.44;5032717;28;20590;-85
2023/07/18 02:15:43;;;;;;;7.27;4.20;;;;;;;14.18;91.66;101306.66;5023672;28;20211;-84
2023/07/18 02:18:10;;;;;;;7.50;3.87;;;;;;;14.17;91.77;101304.94;5020869;28;20222;-85
2023/07/18 02:20:36;;;;;;;5.70;3.33;;;;;;;14.18;91.43;101316.50;5025198;28;20230;-85
2023/07/18 02:23:02;;;;;;;6.97;3.60;;;;;;;14.18;91.15;101311.16;5040044;28;20593;-85
2023/07/18 02:25:29;;;;;;;6.20;3.40;;;;;;;14.18;91.19;101313.81;5028048;28;20573;-85
2023/07/18 02:27:55;;;;;;;7.07;3.50;;;;;;;14.16;91.48;101313.06;5017461;28;20211;-85
2023/07/18 02:30:23;;;;;;;5.23;3.30;;;;;;;14.16;91.28;101313.94;5028912;28;20198;-84
2023/07/18 02:32:51;;;;;;;4.67;3.43;;;;;;;14.16;91.03;101321.09;5031483;28;20240;-85
2023/07/18 02:35:17;;;;;;;6.53;3.50;;;;;;;14.16;91.28;101323.78;5049472;28;20212;-85
2023/07/18 02:37:45;;;;;;;5.37;3.57;;;;;;;14.15;90.73;101319.41;5041395;28;20217;-84
2023/07/18 02:40:12;;;;;;;8.37;3.60;;;;;;;14.16;90.87;101330.00;5021638;28;20238;-85
2023/07/18 02:42:39;;;;;;;6.00;3.70;;;;;;;14.17;91.09;101333.53;5031625;28;20280;-85
2023/07/18 02:45:09;;;;;;;7.10;4.17;;;;;;;14.14;91.16;101331.94;5031773;28;20225;-84
2023/07/18 02:47:37;;;;;;;7.67;3.87;;;;;;;14.11;91.04;101342.00;5031564;28;20213;-84
2023/07/18 02:50:04;;;;;;;6.33;3.90;;;;;;;14.10;90.75;101338.47;5031441;28;20202;-84
2023/07/18 02:52:30;;;;;;;6.00;3.77;;;;;;;14.09;90.65;101346.59;5030673;28;20230;-83
2023/07/18 02:54:59;;;;;;;7.07;3.57;;;;;;;14.09;90.58;101351.97;5024133;28;20205;-84
2023/07/18 02:57:25;;;;;;;5.67;3.93;;;;;;;14.06;90.70;101350.34;5014643;28;20202;-85
2023/07/18 02:59:54;;;;;;;7.63;4.17;;;;;;;14.06;91.15;101354.84;5031481;28;20218;-84
2023/07/18 03:02:22;;;;;;;10.00;4.33;;;;;;;14.06;90.95;101346.81;5031683;28;20788;-85
2023/07/18 03:04:50;;;;;;;10.17;4.10;;;;;;;14.04;90.70;101356.75;5031746;28;20217;-86
2023/07/18 03:07:17;;;;;;;9.70;4.47;;;;;;;14.03;90.63;101357.72;5031761;28;20205;-85
2023/07/18 03:09:44;;;;;;;5.40;3.70;;;;;;;14.01;90.86;101357.81;5032031;28;20665;-84
2023/07/18 03:12:11;;;;;;;6.83;4.00;;;;;;;14.02;90.82;101356.00;5031533;28;20238;-84
2023/07/18 03:14:37;;;;;;;6.20;3.90;;;;;;;14.02;91.08;101358.69;5031562;28;20572;-83
2023/07/18 03:17:04;;;;;;;7.50;4.17;;;;;;;13.98;91.18;101357.16;5032026;28;20202;-84
2023/07/18 03:19:31;;;;;;;5.80;3.97;;;;;;;13.96;90.82;101357.28;5031721;28;20560;-85
2023/07/18 03:22:02;;;;;;;7.87;4.10;;;;;;;13.97;91.24;101358.16;5032046;28;20269;-84
2023/07/18 03:24:28;;;;;;;9.07;3.93;;;;;;;13.93;91.08;101364.66;5028791;28;20214;-84
2023/07/18 03:26:54;;;;;;;9.00;3.83;;;;;;;13.90;90.59;101357.69;5012551;28;20218;-85
2023/07/18 03:29:21;;;;;;;10.83;3.83;;;;;;;13.83;90.75;101357.22;5022402;28;20240;-85
2023/07/18 03:31:47;;;;;;;9.83;4.37;;;;;;;13.81;90.62;101351.09;5025557;28;20233;-86
2023/07/18 03:34:14;;;;;;;8.83;4.20;;;;;;;13.79;90.46;101357.53;5012303;28;20207;-85
2023/07/18 03:36:40;;;;;;;9.30;4.07;;;;;;;13.74;90.77;101354.28;5031590;28;20212;-85
2023/07/18 03:39:08;;;;;;;9.43;4.30;;;;;;;13.71;91.09;101350.00;5030902;28;20213;-85
2023/07/18 03:41:35;;;;;;;7.40;3.70;;;;;;;13.70;91.18;101352.78;5027398;28;20219;-84
2023/07/18 03:44:02;;;;;;;8.17;4.03;;;;;;;13.69;91.75;101354.59;5011477;28;20206;-85
2023/07/18 03:46:29;;;;;;;5.93;3.77;;;;;;;13.69;91.58;101351.06;5022798;28;20260;-83
2023/07/18 03:48:56;;;;;;;10.73;3.70;;;;;;;13.69;92.10;101349.22;5030720;28;20683;-84
2023/07/18 03:51:23;;;;;;;9.03;4.00;;;;;;;13.71;92.27;101343.78;5030670;28;20218;-84
2023/07/18 03:53:50;;;;;;;10.70;4.47;;;;;;;13.72;92.54;101351.72;5034686;28;20206;-85
2023/07/18 03:56:19;;;;;;;10.00;3.97;;;;;;;13.70;92.25;101348.28;5033939;28;20206;-84
2023/07/18 03:58:46;;;;;;;6.77;3.83;;;;;;;13.68;92.20;101350.19;5034561;28;20202;-84
2023/07/18 04:01:12;;;;;;;10.40;4.33;;;;;;;13.68;92.44;101349.31;5027727;28;20733;-84
2023/07/18 04:03:39;;;;;;;9.13;4.90;;;;;;;13.68;92.91;101342.16;5034639;28;20210;-85
2023/07/18 04:06:06;;;;;;;12.90;4.87;;;;;;;13.67;92.74;101345.78;5034850;28;20209;-84
2023/07/18 04:08:33;;;;;;;9.10;4.30;;;;;;;13.67;93.23;101344.94;5034510;28;20202;-85
2023/07/18 04:11:00;;;;;;;10.20;4.80;;;;;;;13.66;93.71;101346.75;5034282;28;20254;-85
2023/07/18 04:13:28;;;;;;;11.73;4.70;;;;;;;13.69;93.86;101351.91;5034156;28;20214;-84
2023/07/18 04:15:55;;;;;;;9.43;4.23;;;;;;;13.68;93.48;101347.50;5033593;28;20211;-84
2023/07/18 04:18:21;;;;;;;6.67;3.80;;;;;;;13.69;93.85;101351.91;5035869;28;20214;-85
2023/07/18 04:20:49;;;;;;;9.17;4.30;;;;;;;13.68;94.23;101347.50;5039856;28;20241;-85
2023/07/18 04:23:15;;;;;;;7.40;3.83;;;;;;;13.70;94.28;101347.41;5034120;28;20206;-86
2023/07/18 04:25:55;;;;;;;5.03;3.80;;;;;;;13.71;94.28;101347.31;5034346;28;20578;-85
2023/07/18 04:28:22;;;;;;;6.60;4.03;;;;;;;13.73;94.89;101342.72;5024962;28;20201;-86
2023/07/18 04:30:52;;;;;;;5.87;3.70;;;;;;;13.75;94.98;101347.97;5032973;28;20318;-85
2023/07/18 04:33:18;;;;;;;5.73;4.70;;;;;;;13.75;94.85;101343.50;5039127;28;20629;-85
2023/07/18 04:35:45;;;;;;;7.67;4.50;;;;;;;13.79;95.16;101344.16;5033191;28;20696;-84
2023/07/18 04:38:13;;;;;;;6.80;4.33;;;;;;;13.79;95.05;101342.31;5032931;28;20213;-84
2023/07/18 04:40:40;;;;;;;8.80;4.20;;;;;;;13.81;95.08;101343.06;5027406;28;20237;-86
2023/07/18 04:43:06;;;;;;;9.93;4.23;;;;;;;13.82;94.93;101349.28;5033578;28;20206;-86
2023/07/18 04:45:33;;;;;;;7.67;4.20;;;;;;;13.84;95.56;101336.66;5025857;28;20666;-84
2023/07/18 04:48:01;;;;;;;7.43;4.40;;;;;;;13.88;95.54;101335.50;5033250;28;20248;-84
2023/07/18 04:50:29;;;;;;;8.53;4.60;;;;;;;13.92;96.14;101336.16;5041164;28;20293;-83
2023/07/18 04:52:55;;;;;;;8.33;4.83;;;;;;;13.95;96.11;101333.28;5033993;28;20221;-84
2023/07/18 04:55:22;;;;;;;6.93;4.53;;;;;;;13.99;96.73;101332.09;5032794;28;20214;-84
2023/07/18 04:57:51;;;;;;;8.60;4.30;;;;;;;14.01;97.01;101336.38;5029400;28;20650;-86
2023/07/18 05:00:18;;;;;;;6.20;4.37;;;;;;;14.06;96.94;101336.09;5033112;28;20275;-85
2023/07/18 05:02:46;;;;;;;9.47;4.43;;;;;;;14.09;97.22;101336.75;5033231;28;20241;-85
2023/07/18 05:05:14;;;;;;;8.10;4.43;;;;;;;14.12;97.36;101325.84;5044462;28;20677;-85
2023/07/18 05:07:44;;;;;;;9.63;3.90;;;;;;;14.16;97.85;101329.13;5038454;28;20228;-84
2023/07/18 05:10:11;;;;;;;7.80;3.90;;;;;;;14.22;97.84;101336.78;5033928;28;20224;-84
2023/07/18 05:12:37;;;;;;;6.87;4.33;;;;;;;14.29;97.88;101332.72;5033279;28;20226;-85
2023/07/18 05:15:04;;;;;;;8.37;3.83;;;;;;;14.36;97.78;101334.00;5030143;28;20209;-82
2023/07/18 05:17:31;;;;;;;11.47;4.57;;;;;;;14.40;97.36;101332.88;5030977;28;20209;-82
2023/07/18 05:19:57;;;;;;;8.03;4.40;;;;;;;14.46;97.08;101342.34;5031069;28;20671;-82
2023/07/18 05:22:25;;;;;;;8.07;4.50;;;;;;;14.51;97.17;101341.03;5030567;28;20702;-82
2023/07/18 05:24:51;;;;;;;6.13;3.87;;;;;;;14.57;97.16;101340.63;5030276;28;20210;-82
2023/07/18 05:27:18;;;;;;;8.10;4.10;;;;;;;14.62;96.61;101342.13;5028563;28;20210;-82
2023/07/18 05:29:45;;;;;;;5.73;3.80;;;;;;;14.68;96.46;101347.06;5030675;28;21073;-83
2023/07/18 05:32:12;;;;;;;8.33;4.07;;;;;;;14.75;96.29;101337.63;5030937;28;20233;-83
2023/07/18 05:34:38;;;;;;;6.37;4.07;;;;;;;14.83;95.91;101346.00;5024478;28;20603;-82
2023/07/18 05:37:05;;;;;;;6.93;3.70;;;;;;;14.89;95.15;101340.19;5036423;28;20584;-83
2023/07/18 05:39:33;;;;;;;8.57;4.23;;;;;;;14.96;94.68;101352.22;5033740;28;20208;-84
2023/07/18 05:41:59;;;;;;;8.27;4.30;;;;;;;15.05;94.79;101356.91;5026419;28;20238;-84
2023/07/18 05:44:26;;;;;;;6.97;4.20;;;;;;;15.16;93.49;101348.13;5033829;28;20230;-84
2023/07/18 05:46:52;;;;;;;6.87;3.90;;;;;;;15.24;92.63;101351.09;5032403;28;20208;-84
2023/07/18 05:49:19;;;;;;;6.17;3.40;;;;;;;15.32;92.07;101347.88;5027623;28;20811;-83
2023/07/18 05:51:45;;;;;;;5.93;3.50;;;;;;;15.42;92.05;101346.22;5032436;28;20708;-84
2023/07/18 05:54:12;;;;;;;6.47;3.67;;;;;;;15.54;90.64;101350.72;5034399;28;20214;-85
2023/07/18 05:56:41;;;;;;;7.90;3.77;;;;;;;15.63;90.16;101353.59;5030639;28;20213;-83
2023/07/18 05:59:08;;;;;;;6.93;3.40;;;;;;;15.77;89.74;101354.41;5031715;28;20295;-85
2023/07/18 06:01:34;;;;;;;8.73;3.17;;;;;;;15.90;88.83;101349.88;5028002;28;20818;-84
2023/07/18 06:04:01;;;;;;;5.37;3.20;;;;;;;16.05;86.37;101347.88;5031467;28;20593;-84
2023/07/18 06:06:27;;;;;;;7.57;3.20;;;;;;;16.18;84.94;101346.81;5027634;28;20201;-84
2023/07/18 06:08:54;;;;;;;7.77;3.53;;;;;;;16.30;83.72;101348.56;5030752;28;20213;-84
2023/07/18 06:11:21;;;;;;;4.87;2.77;;;;;;;16.45;82.17;101354.63;5030640;28;20608;-84
2023/07/18 06:13:49;;;;;;;7.43;3.57;;;;;;;16.60;80.49;101353.44;5025916;28;20206;-85
2023/07/18 06:16:16;;;;;;;6.97;3.70;;;;;;;16.75;80.15;101345.19;5028434;28;20240;-85
2023/07/18 06:18:42;;;;;;;6.03;2.87;;;;;;;16.88;79.42;101352.16;5031259;28;20210;-84
2023/07/18 06:21:09;;;;;;;4.30;2.80;;;;;;;16.99;78.02;101341.41;5027304;28;20235;-84
2023/07/18 06:23:35;;;;;;;5.27;2.83;;;;;;;17.14;77.07;101335.78;5030455;28;20219;-84
2023/07/18 06:26:02;;;;;;;5.37;2.70;;;;;;;17.28;74.98;101341.78;5031266;28;20212;-84
2023/07/18 06:28:29;;;;;;;4.33;2.57;;;;;;;17.41;74.28;101332.69;5031548;28;20211;-84
2023/07/18 06:30:57;;;;;;;6.07;2.53;;;;;;;17.59;74.17;101328.50;5029929;28;20223;-84
2023/07/18 06:33:25;;;;;;;5.37;2.33;;;;;;;17.71;73.26;101330.25;5030120;28;20204;-83
2023/07/18 06:35:52;;;;;;;4.97;2.43;;;;;;;17.87;72.88;101333.38;5031434;28;20213;-83
2023/07/18 06:38:19;;;;;;;4.47;2.33;;;;;;;17.99;71.83;101329.66;5031546;28;20205;-84
2023/07/18 06:40:45;;;;;;;4.13;2.37;;;;;;;18.11;70.30;101334.97;5030599;28;20221;-84
2023/07/18 06:43:12;;;;;;;4.80;2.20;;;;;;;18.21;69.32;101333.25;5031279;28;20274;-84
2023/07/18 06:45:38;;;;;;;5.47;1.80;;;;;;;18.30;69.01;101329.75;5030766;28;20209;-84
2023/07/18 06:48:07;;;;;;;3.97;2.00;;;;;;;18.44;68.95;101334.84;5032443;28;20219;-84
2023/07/18 06:50:33;;;;;;;5.43;1.93;;;;;;;18.58;67.79;101339.91;5029554;28;20585;-84
2023/07/18 06:53:01;;;;;;;3.33;1.80;;;;;;;18.71;67.48;101339.72;5027870;28;20216;-84
2023/07/18 06:55:28;;;;;;;8.10;2.50;;;;;;;18.80;66.68;101338.94;5028560;28;20219;-84
2023/07/18 06:57:54;;;;;;;3.87;1.83;;;;;;;18.93;66.76;101333.31;5029537;28;20210;-84
2023/07/18 07:00:22;;;;;;;5.87;2.33;;;;;;;19.10;66.25;101335.41;5027014;28;20216;-84
2023/07/18 07:02:48;;;;;;;6.53;2.60;;;;;;;19.26;65.96;101330.34;5024875;28;20266;-84
2023/07/18 07:05:16;;;;;;;3.70;2.40;;;;;;;19.39;64.24;101319.28;5029644;28;20207;-85
2023/07/18 07:07:43;;;;;;;4.77;2.23;;;;;;;19.51;64.11;101320.09;5021150;28;20220;-84
2023/07/18 07:10:09;;;;;;;4.43;2.30;;;;;;;19.64;63.41;101326.94;5024671;28;20725;-85
2023/07/18 07:12:36;;;;;;;5.13;2.00;;;;;;;19.77;63.11;101321.25;5030118;28;20234;-85
2023/07/18 07:15:03;;;;;;;4.67;2.27;;;;;;;19.83;62.20;101327.97;5026189;28;20592;-85
2023/07/18 07:17:29;;;;;;;5.60;2.10;;;;;;;19.93;61.53;101318.84;5025963;28;20218;-84
2023/07/18 07:19:58;;;;;;;7.85;2.42;;;;;;;20.03;61.39;101325.13;5020875;28;20209;-85
2023/07/18 07:22:25;;;;;;;3.35;1.90;;;;;;;20.10;61.11;101315.44;5025892;28;20234;-85
2023/07/18 07:24:52;;;;;;;4.03;1.90;;;;;;;20.21;61.01;101322.56;5027185;28;20206;-84
2023/07/18 07:27:19;;;;;;;2.63;1.70;;;;;;;20.26;59.92;101328.38;5033495;28;20208;-84
2023/07/18 07:29:45;;;;;;;4.05;2.00;;;;;;;20.32;60.32;101325.13;5036086;28;20301;-85
2023/07/18 07:32:12;;;;;;;3.90;2.08;;;;;;;20.42;60.13;101322.44;5035263;28;20567;-85
2023/07/18 07:34:38;;;;;;;3.83;1.80;;;;;;;20.51;59.37;101318.00;5031571;28;20209;-84
2023/07/18 07:37:05;;;;;;;2.90;1.73;;;;;;;20.63;58.89;101317.69;5031316;28;20213;-84
2023/07/18 07:39:33;;;;;;;3.22;1.52;;;;;;;20.71;58.80;101323.25;5032109;28;20202;-84
2023/07/18 07:42:01;;;;;;;3.55;1.88;;;;;;;20.78;58.02;101318.91;5030013;28;20225;-84
2023/07/18 07:44:28;;;;;;;3.63;2.17;;;;;;;20.85;57.84;101312.94;5035408;28;20213;-84
2023/07/18 07:46:56;;;;;;;3.60;2.03;;;;;;;20.95;57.97;101311.06;5029091;28;20208;-84
2023/07/18 07:49:22;;;;;;;4.13;1.80;;;;;;;21.05;57.71;101315.44;5029819;28;20207;-84
2023/07/18 07:51:49;;;;;;;3.92;2.00;;;;;;;21.13;57.68;101309.28;5029950;28;20691;-84
2023/07/18 07:54:16;;;;;;;4.88;2.00;;;;;;;21.20;57.18;101307.69;5032782;28;20621;-86
2023/07/18 07:56:48;;;;;;;3.97;1.75;;;;;;;21.25;56.64;101294.56;5037722;28;20213;-85
2023/07/18 07:59:14;;;;;;;4.28;1.80;;;;;;;21.31;56.54;101291.25;5037607;28;20202;-85
2023/07/18 08:01:41;;;;;;;4.82;1.95;;;;;;;21.40;56.83;101289.47;5035320;28;20319;-86
2023/07/18 08:04:08;;;;;;;7.25;2.28;;;;;;;21.52;56.47;101299.09;5029885;28;20218;-85
2023/07/18 08:06:34;;;;;;;5.47;1.83;;;;;;;21.60;56.31;101295.63;5033240;28;20208;-85
2023/07/18 08:09:21;;;;;;;3.28;1.85;;;;;;;21.70;55.84;101299.97;5028645;28;20206;-85
2023/07/18 08:11:51;;;;;;;2.53;1.58;;;;;;;21.77;56.08;101298.38;5034719;28;20229;-83
2023/07/18 08:14:18;;;;;;;5.20;1.70;;;;;;;21.89;55.92;101300.84;5038649;28;20240;-85
2023/07/18 08:16:45;;;;;;;3.35;1.80;;;;;;;21.97;55.47;101298.22;5031476;28;20857;-85
2023/07/18 08:19:12;;;;;;;3.83;1.80;;;;;;;22.08;55.28;101298.84;5031174;28;20206;-85
2023/07/18 08:21:39;;;;;;;2.67;1.45;;;;;;;22.24;54.88;101290.00;5033621;28;20316;-85
2023/07/18 08:24:06;;;;;;;5.53;1.80;;;;;;;22.29;53.79;101287.69;5029895;28;20213;-85
2023/07/18 08:26:33;;;;;;;4.30;2.15;;;;;;;22.34;53.36;101285.34;5033816;28;20198;-85
2023/07/18 08:29:01;;;;;;;4.55;1.75;;;;;;;22.40;52.99;101289.28;5029056;28;20662;-85
2023/07/18 08:31:27;;;;;;;4.65;1.55;;;;;;;22.49;52.84;101285.63;5030028;28;20308;-85
2023/07/18 08:33:54;;;;;;;3.53;1.75;;;;;;;22.57;52.56;101282.97;5030199;28;20209;-85
2023/07/18 08:36:21;;;;;;;2.50;1.30;;;;;;;22.68;51.58;101279.13;5032423;28;20209;-84
2023/07/18 08:38:50;;;;;;;5.05;1.45;;;;;;;22.72;50.31;101281.38;5028873;28;20264;-84
2023/07/18 08:41:17;;;;;;;4.07;1.35;;;;;;;22.80;50.32;101270.56;5024547;28;20599;-84
2023/07/18 08:43:45;;;;;;;2.38;1.45;;;;;;;22.88;49.89;101274.34;5039657;28;20209;-85
2023/07/18 08:46:14;;;;;;;2.92;1.27;;;;;;;22.97;50.39;101268.78;5030953;28;20214;-86
2023/07/18 08:48:41;;;;;;;4.70;1.40;;;;;;;23.07;49.62;101258.66;5034076;28;20213;-85
2023/07/18 08:51:08;;;;;;;2.22;1.42;;;;;;;23.13;49.23;101258.00;5031172;28;20251;-85
2023/07/18 08:53:35;;;;;;;3.75;1.50;;;;;;;23.17;49.35;101266.69;5034593;28;20194;-85
2023/07/18 08:56:02;;;;;;;2.92;1.60;;;;;;;23.18;49.40;101265.66;5031264;28;20203;-87
2023/07/18 08:58:28;;;;;;;2.80;1.60;;;;;;;23.30;49.53;101258.03;5030132;28;20217;-85
2023/07/18 09:00:57;;;;;;;3.67;1.35;;;;;;;23.39;48.45;101265.22;5035384;28;20720;-85
2023/07/18 09:03:25;;;;;;;2.03;1.15;;;;;;;23.46;47.64;101261.69;5035372;28;20230;-85
2023/07/18 09:05:52;;;;;;;1.98;1.15;;;;;;;23.48;47.34;101265.06;5034028;28;20222;-86
2023/07/18 09:08:18;;;;;;;3.83;1.33;;;;;;;23.51;47.52;101259.34;5029656;28;20748;-86
2023/07/18 09:10:45;;;;;;;1.77;1.33;;;;;;;23.57;47.50;101251.53;5027648;28;20709;-85
2023/07/18 09:13:12;;;;;;;3.58;1.67;;;;;;;23.58;47.46;101245.09;5030061;28;20206;-85
2023/07/18 09:15:39;;;;;;;2.75;1.23;;;;;;;23.61;47.86;101247.47;5024803;28;20206;-84
2023/07/18 09:18:08;;;;;;;4.07;1.33;;;;;;;23.70;48.36;101241.03;5027850;28;20198;-84
2023/07/18 09:20:36;;;;;;;2.05;1.30;;;;;;;23.87;47.15;101242.72;5026664;28;20217;-86
2023/07/18 09:23:04;;;;;;;2.75;1.40;;;;;;;23.94;46.74;101238.31;5031962;28;20574;-85
2023/07/18 09:25:31;;;;;;;3.80;1.50;;;;;;;24.04;46.92;101232.69;5029566;28;20597;-84
2023/07/18 09:27:59;;;;;;;2.30;1.40;;;;;;;24.11;46.43;101229.13;5032118;28;20206;-86
2023/07/18 09:30:29;;;;;;;4.35;1.40;;;;;;;24.14;45.52;101225.22;5028222;28;20202;-85
2023/07/18 09:32:56;;;;;;;3.83;1.52;;;;;;;24.06;45.71;101222.50;5030253;28;20666;-85
2023/07/18 09:35:22;;;;;;;3.17;1.50;;;;;;;24.09;45.82;101220.28;5030714;28;20376;-85
2023/07/18 09:37:50;;;;;;;4.50;1.70;;;;;;;24.10;45.17;101221.16;5029548;28;20597;-84
2023/07/18 09:40:18;;;;;;;2.72;1.27;;;;;;;24.12;45.15;101219.09;5033622;28;20251;-84
2023/07/18 09:42:46;;;;;;;4.03;1.40;;;;;;;24.19;44.75;101220.09;5028576;28;20237;-85
2023/07/18 09:45:13;;;;;;;4.60;1.15;;;;;;;24.25;44.93;101205.00;5029896;28;20201;-84
2023/07/18 09:47:41;;;;;;;2.95;1.30;;;;;;;24.32;44.99;101214.19;5028190;28;20588;-84
2023/07/18 09:50:08;;;;;;;2.72;1.20;;;;;;;24.38;45.15;101205.31;5026263;28;20289;-85
2023/07/18 09:52:37;;;;;;;2.45;1.25;;;;;;;24.40;44.35;101209.56;5027967;28;20229;-84
2023/07/18 09:55:09;;;;;;;4.50;1.50;;;;;;;24.43;43.92;101208.38;5027774;28;20214;-85
2023/07/18 09:57:38;;;;;;;3.10;1.30;;;;;;;24.49;44.12;101199.50;5027553;28;20301;-84
2023/07/18 10:00:05;;;;;;;2.95;1.00;;;;;;;24.59;43.19;101191.97;5024312;28;20571;-85
2023/07/18 10:02:32;;;;;;;1.70;1.30;;;;;;;24.62;43.22;101191.63;5026859;28;22166;-85
2023/07/18 10:04:59;;;;;;;2.33;1.00;;;;;;;24.67;43.45;101193.84;5029558;28;20217;-86
2023/07/18 10:07:26;;;;;;;2.10;1.02;;;;;;;24.70;43.49;101185.31;5030292;28;20214;-85
2023/07/18 10:09:52;;;;;;;2.40;1.30;;;;;;;24.82;43.06;101194.81;5024034;28;20206;-85
2023/07/18 10:12:20;;;;;;;1.77;1.02;;;;;;;24.88;42.54;101186.78;5036040;28;20217;-84
2023/07/18 10:14:58;;;;;;;3.83;1.58;;;;;;;24.94;42.39;101182.50;5032177;28;20213;-85
2023/07/18 10:17:38;;;;;;;2.60;1.20;;;;;;;25.02;42.23;101178.91;5022367;28;20202;-85
2023/07/18 10:20:11;;;;;;;1.92;1.05;;;;;;;25.00;41.66;101184.53;5029982;28;20206;-85
2023/07/18 10:22:45;;;;;;;2.45;1.08;;;;;;;25.00;41.49;101183.69;5023357;28;20233;-85
2023/07/18 10:25:12;;;;;;;1.80;1.10;;;;;;;24.99;41.75;101179.25;5024828;28;20201;-85
2023/07/18 10:27:42;;;;;;;2.92;1.35;;;;;;;24.93;42.03;101181.63;5033431;28;20202;-85
2023/07/18 10:30:12;;;;;;;2.88;1.42;;;;;;;24.87;42.56;101176.91;5025309;28;20197;-85
2023/07/18 10:32:41;;;;;;;2.28;1.20;;;;;;;24.84;43.02;101184.59;5025792;28;21019;-84
2023/07/18 10:35:09;;;;;;;3.50;1.42;;;;;;;24.82;42.88;101173.84;5014519;28;20293;-85
2023/07/18 10:37:36;;;;;;;2.33;1.38;;;;;;;24.84;43.59;101166.34;5027595;28;20209;-84
2023/07/18 10:40:05;;;;;;;2.00;1.13;;;;;;;24.85;43.36;101167.22;5025533;28;20237;-84
2023/07/18 10:42:34;;;;;;;2.13;1.00;;;;;;;24.82;42.58;101160.22;5033124;28;20229;-85
2023/07/18 10:45:07;;;;;;;1.98;1.00;;;;;;;24.79;42.58;101165.19;5030409;28;20224;-85
2023/07/18 10:47:35;;;;;;;1.77;1.10;;;;;;;24.75;42.27;101155.66;5028022;28;20206;-85
2023/07/18 10:50:04;;;;;;;3.85;1.15;;;;;;;24.80;42.80;101159.56;5032500;28;21015;-85
2023/07/18 10:52:32;;;;;;;2.63;1.10;;;;;;;24.84;42.91;101154.59;5029708;28;20222;-85
2023/07/18 10:55:00;;;;;;;1.67;1.25;;;;;;;24.90;42.87;101160.19;5027416;28;20214;-85
2023/07/18 10:57:28;;;;;;;3.65;1.33;;;;;;;24.96;42.41;101153.22;5032086;28;20558;-87
2023/07/18 10:59:55;;;;;;;3.33;1.20;;;;;;;25.04;42.46;101144.16;5028048;28;20218;-85
2023/07/18 11:02:23;;;;;;;1.65;0.68;;;;;;;25.15;41.60;101141.00;5031420;28;20236;-85
2023/07/18 11:04:52;;;;;;;2.10;1.20;;;;;;;25.19;40.95;101131.44;5031584;28;20312;-85
2023/07/18 11:07:19;;;;;;;1.13;0.90;;;;;;;25.21;40.60;101137.56;5033971;28;20193;-85
2023/07/18 11:09:45;;;;;;;1.48;0.88;;;;;;;25.24;40.20;101137.22;5036180;28;20206;-85
2023/07/18 11:12:18;;;;;;;3.03;1.10;;;;;;;25.38;40.72;101133.69;5035362;28;20226;-84
2023/07/18 11:14:45;;;;;;;2.70;0.90;;;;;;;25.52;40.31;101124.72;5030230;28;20216;-84
2023/07/18 11:17:13;;;;;;;3.03;0.82;;;;;;;25.62;39.85;101131.81;5030817;28;20237;-87
2023/07/18 11:19:41;;;;;;;1.70;0.82;;;;;;;25.72;39.93;101130.56;5026397;28;20323;-85
2023/07/18 11:22:08;;;;;;;1.55;1.08;;;;;;;25.70;39.12;101135.34;5024765;28;20636;-86
2023/07/18 11:24:35;;;;;;;1.83;1.02;;;;;;;25.72;39.40;101140.63;5027900;28;20206;-86